首页
METAR-TAF:

METAR-TAF

机场 :

塔科马 / Fort Lewis, 华盛顿, 美国

纬度: 47-07N, 经度: 122-33W, 海拔: 92米

当前天气观测

该预报发布于50分钟前的10:55 UTC
风速3节,风向东南
温度 7°C
湿度 87%
气压 1015 hPa
能見度: 16.1公里
天空无云

METAR: KGRF 191055Z AUTO 13003KT 10SM CLR 07/05 A2996 RMK AO2 SLP149 T00670049 $

时间: 04:45 (11:45 UTC)

预报

该预报发布于6小时和45分钟前的05:00 UTC
预报有效从19日的 05点(UTC)到 20日的 11点(UTC)
风速5节,风向北转东北
能見度: 1923
天空无云

TAF: KGRF 190500Z 1905/2011 02005KT 9999 SKC QNH2992INS TX25/1923Z TN09/1912Z LAST NO AMDS AFT 1923

超过4000个机场的气象观测和天气预报(METAR&TAF报告)。

可查询的气象台以黄色和红色小点在地图上表示。

将鼠标移到小点上方,可查看气象台名称。

然后点击查看天气观测和预报。

如需切换地图:点击带黑十字的绿色按钮放大地图;点击带横线的绿色按钮缩小地图;或者点击绿色箭头查看邻近地区的地图。


METAR-TAF: